sensor_id;sensor_type;location;lat;lon;timestamp;temperature;humidity
20498;DHT22;10407;53.238;10.448;2023-01-29T00:01:29;3.30;99.90
20498;DHT22;10407;53.238;10.448;2023-01-29T00:03:57;3.40;99.90
20498;DHT22;10407;53.238;10.448;2023-01-29T00:06:24;3.50;99.90
20498;DHT22;10407;53.238;10.448;2023-01-29T00:08:52;3.40;99.90
20498;DHT22;10407;53.238;10.448;2023-01-29T00:11:19;3.20;99.90
20498;DHT22;10407;53.238;10.448;2023-01-29T00:13:47;3.20;99.90
20498;DHT22;10407;53.238;10.448;2023-01-29T00:16:14;3.40;99.90
20498;DHT22;10407;53.238;10.448;2023-01-29T00:18:43;3.50;99.90
20498;DHT22;10407;53.238;10.448;2023-01-29T00:21:13;3.40;99.90
20498;DHT22;10407;53.238;10.448;2023-01-29T00:23:41;3.40;99.90
20498;DHT22;10407;53.238;10.448;2023-01-29T00:26:09;3.50;99.90
20498;DHT22;10407;53.238;10.448;2023-01-29T00:28:37;3.50;99.90
20498;DHT22;10407;53.238;10.448;2023-01-29T00:31:13;3.50;99.90
20498;DHT22;10407;53.238;10.448;2023-01-29T00:33:41;3.50;99.90
20498;DHT22;10407;53.238;10.448;2023-01-29T00:36:11;3.40;99.90
20498;DHT22;10407;53.238;10.448;2023-01-29T00:38:39;3.50;99.90
20498;DHT22;10407;53.238;10.448;2023-01-29T00:41:08;3.60;99.90
20498;DHT22;10407;53.238;10.448;2023-01-29T00:43:54;3.60;99.90
20498;DHT22;10407;53.238;10.448;2023-01-29T00:46:40;3.60;99.90
20498;DHT22;10407;53.238;10.448;2023-01-29T00:49:08;3.40;99.90
20498;DHT22;10407;53.238;10.448;2023-01-29T00:51:37;3.40;99.90
20498;DHT22;10407;53.238;10.448;2023-01-29T00:54:05;3.40;99.90
20498;DHT22;10407;53.238;10.448;2023-01-29T00:56:36;3.30;99.90
20498;DHT22;10407;53.238;10.448;2023-01-29T00:59:04;3.30;99.90
20498;DHT22;10407;53.238;10.448;2023-01-29T01:01:31;3.30;99.90
20498;DHT22;10407;53.238;10.448;2023-01-29T01:04:17;3.40;99.90
20498;DHT22;10407;53.238;10.448;2023-01-29T01:06:44;3.30;99.90
20498;DHT22;10407;53.238;10.448;2023-01-29T01:09:12;3.40;99.90
20498;DHT22;10407;53.238;10.448;2023-01-29T01:11:57;3.50;99.90
20498;DHT22;10407;53.238;10.448;2023-01-29T01:14:25;3.50;99.90
20498;DHT22;10407;53.238;10.448;2023-01-29T01:16:52;3.60;99.90
20498;DHT22;10407;53.238;10.448;2023-01-29T01:19:20;3.60;99.90
20498;DHT22;10407;53.238;10.448;2023-01-29T01:21:47;3.60;99.90
20498;DHT22;10407;53.238;10.448;2023-01-29T01:24:15;3.60;99.90
20498;DHT22;10407;53.238;10.448;2023-01-29T01:26:42;3.60;99.90
20498;DHT22;10407;53.238;10.448;2023-01-29T01:29:10;3.50;99.90
20498;DHT22;10407;53.238;10.448;2023-01-29T01:31:37;3.30;99.90
20498;DHT22;10407;53.238;10.448;2023-01-29T01:34:05;3.40;99.90
20498;DHT22;10407;53.238;10.448;2023-01-29T01:36:32;3.40;99.90
20498;DHT22;10407;53.238;10.448;2023-01-29T01:39:00;3.60;99.90
20498;DHT22;10407;53.238;10.448;2023-01-29T01:41:29;3.50;99.90
20498;DHT22;10407;53.238;10.448;2023-01-29T01:43:59;3.60;99.90
20498;DHT22;10407;53.238;10.448;2023-01-29T01:46:34;3.60;99.90
20498;DHT22;10407;53.238;10.448;2023-01-29T01:49:09;3.50;99.90
20498;DHT22;10407;53.238;10.448;2023-01-29T01:51:39;3.50;99.90
20498;DHT22;10407;53.238;10.448;2023-01-29T01:54:10;3.60;99.90
20498;DHT22;10407;53.238;10.448;2023-01-29T01:56:41;3.60;99.90
20498;DHT22;10407;53.238;10.448;2023-01-29T01:59:11;3.50;99.90
20498;DHT22;10407;53.238;10.448;2023-01-29T02:01:41;3.60;99.90
20498;DHT22;10407;53.238;10.448;2023-01-29T02:04:14;3.60;99.90
20498;DHT22;10407;53.238;10.448;2023-01-29T02:07:02;3.40;99.90
20498;DHT22;10407;53.238;10.448;2023-01-29T02:10:06;3.50;99.90
20498;DHT22;10407;53.238;10.448;2023-01-29T02:12:20;3.60;99.90
20498;DHT22;10407;53.238;10.448;2023-01-29T02:14:50;3.60;99.90
20498;DHT22;10407;53.238;10.448;2023-01-29T02:17:19;3.70;99.90
20498;DHT22;10407;53.238;10.448;2023-01-29T02:22:41;3.60;99.90
20498;DHT22;10407;53.238;10.448;2023-01-29T02:25:22;3.60;99.90
20498;DHT22;10407;53.238;10.448;2023-01-29T02:36:49;3.60;99.90
20498;DHT22;10407;53.238;10.448;2023-01-29T02:39:31;3.70;99.90
20498;DHT22;10407;53.238;10.448;2023-01-29T02:45:09;3.70;99.90
20498;DHT22;10407;53.238;10.448;2023-01-29T02:47:39;3.60;99.90
20498;DHT22;10407;53.238;10.448;2023-01-29T02:50:30;3.70;99.90
20498;DHT22;10407;53.238;10.448;2023-01-29T02:53:25;3.70;99.90
20498;DHT22;10407;53.238;10.448;2023-01-29T02:55:52;3.70;99.90
20498;DHT22;10407;53.238;10.448;2023-01-29T03:00:51;3.60;99.90
20498;DHT22;10407;53.238;10.448;2023-01-29T03:03:44;3.70;99.90
20498;DHT22;10407;53.238;10.448;2023-01-29T03:05:57;3.70;99.90
20498;DHT22;10407;53.238;10.448;2023-01-29T03:08:45;3.60;99.90
20498;DHT22;10407;53.238;10.448;2023-01-29T03:11:00;3.50;99.90
20498;DHT22;10407;53.238;10.448;2023-01-29T03:13:38;3.70;99.90
20498;DHT22;10407;53.238;10.448;2023-01-29T03:16:11;3.50;99.90
20498;DHT22;10407;53.238;10.448;2023-01-29T03:18:42;3.60;99.90
20498;DHT22;10407;53.238;10.448;2023-01-29T03:21:14;3.50;99.90
20498;DHT22;10407;53.238;10.448;2023-01-29T03:23:59;3.40;99.90
20498;DHT22;10407;53.238;10.448;2023-01-29T03:26:44;3.50;99.90
20498;DHT22;10407;53.238;10.448;2023-01-29T03:29:31;3.60;99.90
20498;DHT22;10407;53.238;10.448;2023-01-29T03:32:20;3.60;99.90
20498;DHT22;10407;53.238;10.448;2023-01-29T03:34:53;3.60;99.90
20498;DHT22;10407;53.238;10.448;2023-01-29T03:37:40;3.50;99.90
20498;DHT22;10407;53.238;10.448;2023-01-29T03:40:09;3.40;99.90
20498;DHT22;10407;53.238;10.448;2023-01-29T03:43:08;3.60;99.90
20498;DHT22;10407;53.238;10.448;2023-01-29T03:51:13;3.50;99.90
20498;DHT22;10407;53.238;10.448;2023-01-29T03:54:01;3.30;99.90
20498;DHT22;10407;53.238;10.448;2023-01-29T03:59:47;3.40;99.90
20498;DHT22;10407;53.238;10.448;2023-01-29T04:02:12;3.40;99.90
20498;DHT22;10407;53.238;10.448;2023-01-29T04:04:42;3.30;99.90
20498;DHT22;10407;53.238;10.448;2023-01-29T04:07:13;3.40;99.90
20498;DHT22;10407;53.238;10.448;2023-01-29T04:09:55;3.10;99.90
20498;DHT22;10407;53.238;10.448;2023-01-29T04:12:24;3.40;99.90
20498;DHT22;10407;53.238;10.448;2023-01-29T04:14:53;3.50;99.90
20498;DHT22;10407;53.238;10.448;2023-01-29T04:17:38;3.40;99.90
20498;DHT22;10407;53.238;10.448;2023-01-29T04:20:07;3.10;99.90
20498;DHT22;10407;53.238;10.448;2023-01-29T04:22:37;3.00;99.90
20498;DHT22;10407;53.238;10.448;2023-01-29T04:25:11;3.10;99.90
20498;DHT22;10407;53.238;10.448;2023-01-29T04:28:05;3.30;99.90
20498;DHT22;10407;53.238;10.448;2023-01-29T04:30:46;3.20;99.90
20498;DHT22;10407;53.238;10.448;2023-01-29T04:36:27;3.30;99.90
20498;DHT22;10407;53.238;10.448;2023-01-29T04:41:49;3.20;99.90
20498;DHT22;10407;53.238;10.448;2023-01-29T04:44:31;3.30;99.90
20498;DHT22;10407;53.238;10.448;2023-01-29T04:47:05;3.30;99.90
20498;DHT22;10407;53.238;10.448;2023-01-29T04:52:13;3.50;99.90
20498;DHT22;10407;53.238;10.448;2023-01-29T04:54:57;3.40;99.90
20498;DHT22;10407;53.238;10.448;2023-01-29T04:57:17;3.50;99.90
20498;DHT22;10407;53.238;10.448;2023-01-29T04:59:50;3.30;99.90
20498;DHT22;10407;53.238;10.448;2023-01-29T05:02:18;3.50;99.90
20498;DHT22;10407;53.238;10.448;2023-01-29T05:04:48;3.40;99.90
20498;DHT22;10407;53.238;10.448;2023-01-29T05:07:18;3.40;99.90
20498;DHT22;10407;53.238;10.448;2023-01-29T05:09:48;3.60;99.90
20498;DHT22;10407;53.238;10.448;2023-01-29T05:12:17;3.60;99.90
20498;DHT22;10407;53.238;10.448;2023-01-29T05:14:46;3.30;99.90
20498;DHT22;10407;53.238;10.448;2023-01-29T05:17:16;3.30;99.90
20498;DHT22;10407;53.238;10.448;2023-01-29T05:19:45;3.10;99.90
20498;DHT22;10407;53.238;10.448;2023-01-29T05:22:15;3.30;99.90
20498;DHT22;10407;53.238;10.448;2023-01-29T05:24:44;3.20;99.90
20498;DHT22;10407;53.238;10.448;2023-01-29T05:27:17;3.30;99.90
20498;DHT22;10407;53.238;10.448;2023-01-29T05:30:03;3.30;99.90
20498;DHT22;10407;53.238;10.448;2023-01-29T05:32:31;3.40;99.90
20498;DHT22;10407;53.238;10.448;2023-01-29T05:34:59;3.40;99.90
20498;DHT22;10407;53.238;10.448;2023-01-29T05:37:26;3.40;99.90
20498;DHT22;10407;53.238;10.448;2023-01-29T05:39:54;3.20;99.90
20498;DHT22;10407;53.238;10.448;2023-01-29T05:42:21;3.40;99.90
20498;DHT22;10407;53.238;10.448;2023-01-29T05:44:49;3.30;99.90
20498;DHT22;10407;53.238;10.448;2023-01-29T05:47:20;3.40;99.90
20498;DHT22;10407;53.238;10.448;2023-01-29T05:49:47;3.20;99.90
20498;DHT22;10407;53.238;10.448;2023-01-29T05:52:15;3.40;99.90
20498;DHT22;10407;53.238;10.448;2023-01-29T05:54:42;3.20;99.90
20498;DHT22;10407;53.238;10.448;2023-01-29T05:57:10;3.30;99.90
20498;DHT22;10407;53.238;10.448;2023-01-29T05:59:37;3.40;99.90
20498;DHT22;10407;53.238;10.448;2023-01-29T06:02:05;3.30;99.90
20498;DHT22;10407;53.238;10.448;2023-01-29T06:04:32;3.40;99.90
20498;DHT22;10407;53.238;10.448;2023-01-29T06:07:00;3.00;99.90
20498;DHT22;10407;53.238;10.448;2023-01-29T06:09:28;3.20;99.90
20498;DHT22;10407;53.238;10.448;2023-01-29T06:11:56;3.30;99.90
20498;DHT22;10407;53.238;10.448;2023-01-29T06:14:23;3.40;99.90
20498;DHT22;10407;53.238;10.448;2023-01-29T06:16:51;3.40;99.90
20498;DHT22;10407;53.238;10.448;2023-01-29T06:19:18;3.40;99.90
20498;DHT22;10407;53.238;10.448;2023-01-29T06:21:46;3.40;99.90
20498;DHT22;10407;53.238;10.448;2023-01-29T06:24:13;3.40;99.90
20498;DHT22;10407;53.238;10.448;2023-01-29T06:26:41;3.40;99.90
20498;DHT22;10407;53.238;10.448;2023-01-29T06:29:09;3.50;99.90
20498;DHT22;10407;53.238;10.448;2023-01-29T06:31:36;3.50;99.90
20498;DHT22;10407;53.238;10.448;2023-01-29T06:34:04;3.50;99.90
20498;DHT22;10407;53.238;10.448;2023-01-29T06:36:31;3.40;99.90
20498;DHT22;10407;53.238;10.448;2023-01-29T06:38:59;3.50;99.90
20498;DHT22;10407;53.238;10.448;2023-01-29T06:41:26;3.20;99.90
20498;DHT22;10407;53.238;10.448;2023-01-29T06:43:54;3.20;99.90
20498;DHT22;10407;53.238;10.448;2023-01-29T06:46:21;3.10;99.90
20498;DHT22;10407;53.238;10.448;2023-01-29T06:48:49;3.10;99.90
20498;DHT22;10407;53.238;10.448;2023-01-29T06:51:17;3.00;99.90
20498;DHT22;10407;53.238;10.448;2023-01-29T06:53:44;3.30;99.90
20498;DHT22;10407;53.238;10.448;2023-01-29T06:56:12;3.10;99.90
20498;DHT22;10407;53.238;10.448;2023-01-29T06:58:39;3.10;99.90
20498;DHT22;10407;53.238;10.448;2023-01-29T07:01:10;3.10;99.90
20498;DHT22;10407;53.238;10.448;2023-01-29T07:03:38;3.20;99.90
20498;DHT22;10407;53.238;10.448;2023-01-29T07:06:08;3.20;99.90
20498;DHT22;10407;53.238;10.448;2023-01-29T07:08:38;3.20;99.90
20498;DHT22;10407;53.238;10.448;2023-01-29T07:11:06;3.20;99.90
20498;DHT22;10407;53.238;10.448;2023-01-29T07:13:34;3.10;99.90
20498;DHT22;10407;53.238;10.448;2023-01-29T07:16:03;2.90;99.90
20498;DHT22;10407;53.238;10.448;2023-01-29T07:18:31;2.80;99.90
20498;DHT22;10407;53.238;10.448;2023-01-29T07:20:58;2.90;99.90
20498;DHT22;10407;53.238;10.448;2023-01-29T07:23:28;3.20;99.90
20498;DHT22;10407;53.238;10.448;2023-01-29T07:25:55;3.10;99.90
20498;DHT22;10407;53.238;10.448;2023-01-29T07:28:22;3.00;99.90
20498;DHT22;10407;53.238;10.448;2023-01-29T07:30:58;2.90;99.90
20498;DHT22;10407;53.238;10.448;2023-01-29T07:33:25;2.90;99.90
20498;DHT22;10407;53.238;10.448;2023-01-29T07:35:53;2.70;99.90
20498;DHT22;10407;53.238;10.448;2023-01-29T07:38:20;2.90;99.90
20498;DHT22;10407;53.238;10.448;2023-01-29T07:40:48;2.90;99.90
20498;DHT22;10407;53.238;10.448;2023-01-29T07:43:15;2.80;99.90
20498;DHT22;10407;53.238;10.448;2023-01-29T07:45:43;2.80;99.90
20498;DHT22;10407;53.238;10.448;2023-01-29T07:48:12;2.60;99.90
20498;DHT22;10407;53.238;10.448;2023-01-29T07:50:40;2.60;99.90
20498;DHT22;10407;53.238;10.448;2023-01-29T07:53:13;2.80;99.90
20498;DHT22;10407;53.238;10.448;2023-01-29T07:55:44;3.00;99.90
20498;DHT22;10407;53.238;10.448;2023-01-29T07:58:12;3.00;99.90
20498;DHT22;10407;53.238;10.448;2023-01-29T08:00:39;2.80;99.90
20498;DHT22;10407;53.238;10.448;2023-01-29T08:03:12;2.80;99.90
20498;DHT22;10407;53.238;10.448;2023-01-29T08:05:42;2.70;99.90
20498;DHT22;10407;53.238;10.448;2023-01-29T08:08:10;2.80;99.90
20498;DHT22;10407;53.238;10.448;2023-01-29T08:10:39;2.90;99.90
20498;DHT22;10407;53.238;10.448;2023-01-29T08:13:07;3.00;99.90
20498;DHT22;10407;53.238;10.448;2023-01-29T08:15:35;3.20;99.90
20498;DHT22;10407;53.238;10.448;2023-01-29T08:18:03;3.00;99.90
20498;DHT22;10407;53.238;10.448;2023-01-29T08:20:31;2.90;99.90
20498;DHT22;10407;53.238;10.448;2023-01-29T08:23:00;3.00;99.90
20498;DHT22;10407;53.238;10.448;2023-01-29T08:25:28;3.20;99.90
20498;DHT22;10407;53.238;10.448;2023-01-29T08:27:57;3.10;99.90
20498;DHT22;10407;53.238;10.448;2023-01-29T08:30:32;3.10;99.90
20498;DHT22;10407;53.238;10.448;2023-01-29T08:32:55;3.00;99.90
20498;DHT22;10407;53.238;10.448;2023-01-29T08:35:23;3.30;99.90
20498;DHT22;10407;53.238;10.448;2023-01-29T08:37:58;3.30;99.90
20498;DHT22;10407;53.238;10.448;2023-01-29T08:40:28;3.20;99.90
20498;DHT22;10407;53.238;10.448;2023-01-29T08:43:01;3.20;99.90
20498;DHT22;10407;53.238;10.448;2023-01-29T08:45:26;3.30;99.90
20498;DHT22;10407;53.238;10.448;2023-01-29T08:47:54;3.60;99.90
20498;DHT22;10407;53.238;10.448;2023-01-29T08:50:21;3.80;99.90
20498;DHT22;10407;53.238;10.448;2023-01-29T08:52:49;3.70;99.90
20498;DHT22;10407;53.238;10.448;2023-01-29T08:55:17;3.70;99.90
20498;DHT22;10407;53.238;10.448;2023-01-29T08:57:44;3.90;99.90
20498;DHT22;10407;53.238;10.448;2023-01-29T09:00:13;3.80;99.90
20498;DHT22;10407;53.238;10.448;2023-01-29T09:02:41;4.00;99.90
20498;DHT22;10407;53.238;10.448;2023-01-29T09:05:09;3.80;99.90
20498;DHT22;10407;53.238;10.448;2023-01-29T09:07:36;3.90;99.90
20498;DHT22;10407;53.238;10.448;2023-01-29T09:10:04;3.80;99.90
20498;DHT22;10407;53.238;10.448;2023-01-29T09:12:32;4.00;99.90
20498;DHT22;10407;53.238;10.448;2023-01-29T09:14:59;4.00;99.90
20498;DHT22;10407;53.238;10.448;2023-01-29T09:17:27;4.00;99.90
20498;DHT22;10407;53.238;10.448;2023-01-29T09:19:55;4.20;99.90
20498;DHT22;10407;53.238;10.448;2023-01-29T09:22:24;4.00;99.90
20498;DHT22;10407;53.238;10.448;2023-01-29T09:24:51;4.20;99.90
20498;DHT22;10407;53.238;10.448;2023-01-29T09:27:19;4.10;99.90
20498;DHT22;10407;53.238;10.448;2023-01-29T09:29:46;4.20;99.90
20498;DHT22;10407;53.238;10.448;2023-01-29T09:32:14;4.20;99.90
20498;DHT22;10407;53.238;10.448;2023-01-29T09:34:42;4.20;99.90
20498;DHT22;10407;53.238;10.448;2023-01-29T09:37:09;4.30;99.90
20498;DHT22;10407;53.238;10.448;2023-01-29T09:39:37;4.40;99.90
20498;DHT22;10407;53.238;10.448;2023-01-29T09:42:23;4.30;99.90
20498;DHT22;10407;53.238;10.448;2023-01-29T09:45:18;4.40;99.90
20498;DHT22;10407;53.238;10.448;2023-01-29T09:47:44;4.50;99.90
20498;DHT22;10407;53.238;10.448;2023-01-29T09:50:22;4.60;99.90
20498;DHT22;10407;53.238;10.448;2023-01-29T09:52:58;4.60;99.90
20498;DHT22;10407;53.238;10.448;2023-01-29T09:55:27;4.60;99.90
20498;DHT22;10407;53.238;10.448;2023-01-29T09:58:11;4.50;99.90
20498;DHT22;10407;53.238;10.448;2023-01-29T10:23:02;4.50;99.90
20498;DHT22;10407;53.238;10.448;2023-01-29T10:25:29;4.40;99.90
20498;DHT22;10407;53.238;10.448;2023-01-29T10:27:59;4.50;99.90
20498;DHT22;10407;53.238;10.448;2023-01-29T10:30:43;4.20;99.90
20498;DHT22;10407;53.238;10.448;2023-01-29T10:33:11;4.20;99.90
20498;DHT22;10407;53.238;10.448;2023-01-29T10:35:49;4.10;99.90
20498;DHT22;10407;53.238;10.448;2023-01-29T10:38:44;4.30;99.90
20498;DHT22;10407;53.238;10.448;2023-01-29T10:41:34;4.50;99.90
20498;DHT22;10407;53.238;10.448;2023-01-29T10:49:49;4.20;99.90
20498;DHT22;10407;53.238;10.448;2023-01-29T10:55:23;4.40;99.90
20498;DHT22;10407;53.238;10.448;2023-01-29T10:57:52;4.30;99.90
20498;DHT22;10407;53.238;10.448;2023-01-29T11:00:24;4.30;99.90
20498;DHT22;10407;53.238;10.448;2023-01-29T11:02:52;4.10;99.90
20498;DHT22;10407;53.238;10.448;2023-01-29T11:05:25;4.40;99.90
20498;DHT22;10407;53.238;10.448;2023-01-29T11:08:05;4.30;99.90
20498;DHT22;10407;53.238;10.448;2023-01-29T11:10:32;4.40;99.90
20498;DHT22;10407;53.238;10.448;2023-01-29T11:13:00;4.50;99.90
20498;DHT22;10407;53.238;10.448;2023-01-29T11:15:31;4.80;99.90
20498;DHT22;10407;53.238;10.448;2023-01-29T11:18:13;4.80;99.90
20498;DHT22;10407;53.238;10.448;2023-01-29T11:20:44;4.90;99.90
20498;DHT22;10407;53.238;10.448;2023-01-29T11:23:31;4.90;99.90
20498;DHT22;10407;53.238;10.448;2023-01-29T11:25:59;5.00;99.90
20498;DHT22;10407;53.238;10.448;2023-01-29T11:28:40;4.90;99.90
20498;DHT22;10407;53.238;10.448;2023-01-29T11:31:26;5.00;99.90
20498;DHT22;10407;53.238;10.448;2023-01-29T11:34:04;5.00;99.90
20498;DHT22;10407;53.238;10.448;2023-01-29T11:36:36;4.90;99.90
20498;DHT22;10407;53.238;10.448;2023-01-29T11:39:11;4.70;99.90
20498;DHT22;10407;53.238;10.448;2023-01-29T11:41:42;4.70;99.90
20498;DHT22;10407;53.238;10.448;2023-01-29T11:44:31;4.80;99.90
20498;DHT22;10407;53.238;10.448;2023-01-29T11:47:10;4.80;99.90
20498;DHT22;10407;53.238;10.448;2023-01-29T11:49:40;4.70;99.90
20498;DHT22;10407;53.238;10.448;2023-01-29T11:52:09;4.70;99.90
20498;DHT22;10407;53.238;10.448;2023-01-29T11:54:42;4.70;99.90
20498;DHT22;10407;53.238;10.448;2023-01-29T11:59:44;4.90;99.90
20498;DHT22;10407;53.238;10.448;2023-01-29T12:02:20;4.80;99.90
20498;DHT22;10407;53.238;10.448;2023-01-29T12:04:47;4.80;99.90
20498;DHT22;10407;53.238;10.448;2023-01-29T12:07:16;4.90;99.90
20498;DHT22;10407;53.238;10.448;2023-01-29T12:09:57;4.80;99.90
20498;DHT22;10407;53.238;10.448;2023-01-29T12:12:29;4.90;99.90
20498;DHT22;10407;53.238;10.448;2023-01-29T12:15:18;4.90;99.90
20498;DHT22;10407;53.238;10.448;2023-01-29T12:17:50;4.70;99.90
20498;DHT22;10407;53.238;10.448;2023-01-29T12:20:22;5.00;99.90
20498;DHT22;10407;53.238;10.448;2023-01-29T12:23:05;5.00;99.90
20498;DHT22;10407;53.238;10.448;2023-01-29T12:25:55;5.20;99.90
20498;DHT22;10407;53.238;10.448;2023-01-29T12:28:56;5.00;99.90
20498;DHT22;10407;53.238;10.448;2023-01-29T12:31:53;4.90;99.90
20498;DHT22;10407;53.238;10.448;2023-01-29T12:34:41;5.10;99.90
20498;DHT22;10407;53.238;10.448;2023-01-29T12:40:01;4.60;99.90
20498;DHT22;10407;53.238;10.448;2023-01-29T12:42:29;4.80;99.90
20498;DHT22;10407;53.238;10.448;2023-01-29T12:45:02;5.00;99.90
20498;DHT22;10407;53.238;10.448;2023-01-29T12:47:46;4.70;99.90
20498;DHT22;10407;53.238;10.448;2023-01-29T12:50:26;4.90;99.90
20498;DHT22;10407;53.238;10.448;2023-01-29T12:52:52;4.60;99.90
20498;DHT22;10407;53.238;10.448;2023-01-29T12:58:38;4.80;99.90
20498;DHT22;10407;53.238;10.448;2023-01-29T13:01:14;4.80;99.90
20498;DHT22;10407;53.238;10.448;2023-01-29T13:06:40;4.80;99.90
20498;DHT22;10407;53.238;10.448;2023-01-29T13:09:14;4.60;99.90
20498;DHT22;10407;53.238;10.448;2023-01-29T13:12:06;4.50;99.90
20498;DHT22;10407;53.238;10.448;2023-01-29T13:14:19;4.60;99.90
20498;DHT22;10407;53.238;10.448;2023-01-29T13:16:50;4.60;99.90
20498;DHT22;10407;53.238;10.448;2023-01-29T13:19:39;4.60;99.90
20498;DHT22;10407;53.238;10.448;2023-01-29T13:22:06;4.70;99.90
20498;DHT22;10407;53.238;10.448;2023-01-29T13:24:38;4.50;99.90
20498;DHT22;10407;53.238;10.448;2023-01-29T13:27:11;4.70;99.90
20498;DHT22;10407;53.238;10.448;2023-01-29T13:29:36;4.40;99.90
20498;DHT22;10407;53.238;10.448;2023-01-29T13:32:04;4.60;99.90
20498;DHT22;10407;53.238;10.448;2023-01-29T13:34:40;4.50;99.90
20498;DHT22;10407;53.238;10.448;2023-01-29T13:37:10;4.70;99.90
20498;DHT22;10407;53.238;10.448;2023-01-29T13:39:45;4.70;99.90
20498;DHT22;10407;53.238;10.448;2023-01-29T13:42:20;4.80;99.90
20498;DHT22;10407;53.238;10.448;2023-01-29T13:44:54;4.50;99.90
20498;DHT22;10407;53.238;10.448;2023-01-29T13:47:29;4.40;99.90
20498;DHT22;10407;53.238;10.448;2023-01-29T13:49:58;4.40;99.90
20498;DHT22;10407;53.238;10.448;2023-01-29T13:52:39;4.50;99.90
20498;DHT22;10407;53.238;10.448;2023-01-29T13:57:54;4.50;99.90
20498;DHT22;10407;53.238;10.448;2023-01-29T14:13:49;4.40;99.90
20498;DHT22;10407;53.238;10.448;2023-01-29T14:19:13;4.60;99.90
20498;DHT22;10407;53.238;10.448;2023-01-29T14:21:36;4.20;99.90
20498;DHT22;10407;53.238;10.448;2023-01-29T14:24:16;4.50;99.90
20498;DHT22;10407;53.238;10.448;2023-01-29T14:26:46;4.20;99.90
20498;DHT22;10407;53.238;10.448;2023-01-29T14:29:25;4.20;99.90
20498;DHT22;10407;53.238;10.448;2023-01-29T14:32:09;4.20;99.90
20498;DHT22;10407;53.238;10.448;2023-01-29T14:34:41;4.40;99.90
20498;DHT22;10407;53.238;10.448;2023-01-29T14:37:18;4.40;99.90
20498;DHT22;10407;53.238;10.448;2023-01-29T14:39:55;4.50;99.90
20498;DHT22;10407;53.238;10.448;2023-01-29T14:42:33;4.20;99.90
20498;DHT22;10407;53.238;10.448;2023-01-29T14:45:20;4.10;99.90
20498;DHT22;10407;53.238;10.448;2023-01-29T14:50:36;4.10;99.90
20498;DHT22;10407;53.238;10.448;2023-01-29T14:53:12;4.30;99.90
20498;DHT22;10407;53.238;10.448;2023-01-29T14:55:54;4.10;99.90
20498;DHT22;10407;53.238;10.448;2023-01-29T15:01:04;3.90;99.90
20498;DHT22;10407;53.238;10.448;2023-01-29T15:03:43;4.10;99.90
20498;DHT22;10407;53.238;10.448;2023-01-29T15:06:29;4.00;99.90
20498;DHT22;10407;53.238;10.448;2023-01-29T15:12:05;4.10;99.90
20498;DHT22;10407;53.238;10.448;2023-01-29T15:14:39;4.00;99.90
20498;DHT22;10407;53.238;10.448;2023-01-29T15:17:21;3.80;99.90
20498;DHT22;10407;53.238;10.448;2023-01-29T15:19:48;3.80;99.90
20498;DHT22;10407;53.238;10.448;2023-01-29T15:22:18;3.80;99.90
20498;DHT22;10407;53.238;10.448;2023-01-29T15:25:01;3.90;99.90
20498;DHT22;10407;53.238;10.448;2023-01-29T15:27:18;3.80;99.90
20498;DHT22;10407;53.238;10.448;2023-01-29T15:29:53;3.90;99.90
20498;DHT22;10407;53.238;10.448;2023-01-29T15:32:30;3.90;99.90
20498;DHT22;10407;53.238;10.448;2023-01-29T15:34:57;3.90;99.90
20498;DHT22;10407;53.238;10.448;2023-01-29T15:37:33;4.00;99.90
20498;DHT22;10407;53.238;10.448;2023-01-29T15:39:57;3.60;99.90
20498;DHT22;10407;53.238;10.448;2023-01-29T15:42:27;3.80;99.90
20498;DHT22;10407;53.238;10.448;2023-01-29T15:44:55;3.70;99.90
20498;DHT22;10407;53.238;10.448;2023-01-29T15:47:26;3.60;99.90
20498;DHT22;10407;53.238;10.448;2023-01-29T15:49:54;3.70;99.90
20498;DHT22;10407;53.238;10.448;2023-01-29T15:52:27;3.70;99.90
20498;DHT22;10407;53.238;10.448;2023-01-29T15:55:01;3.80;99.90
20498;DHT22;10407;53.238;10.448;2023-01-29T15:57:32;3.90;99.90
20498;DHT22;10407;53.238;10.448;2023-01-29T16:00:01;3.70;99.90
20498;DHT22;10407;53.238;10.448;2023-01-29T16:05:10;3.70;99.90
20498;DHT22;10407;53.238;10.448;2023-01-29T16:07:34;3.50;99.90
20498;DHT22;10407;53.238;10.448;2023-01-29T16:10:02;3.60;99.90
20498;DHT22;10407;53.238;10.448;2023-01-29T16:12:32;3.60;99.90
20498;DHT22;10407;53.238;10.448;2023-01-29T16:15:02;3.80;99.90
20498;DHT22;10407;53.238;10.448;2023-01-29T16:17:32;3.50;99.90
20498;DHT22;10407;53.238;10.448;2023-01-29T16:20:04;3.50;99.90
20498;DHT22;10407;53.238;10.448;2023-01-29T16:22:38;3.40;99.90
20498;DHT22;10407;53.238;10.448;2023-01-29T16:25:04;3.40;99.90
20498;DHT22;10407;53.238;10.448;2023-01-29T16:27:33;3.50;99.90
20498;DHT22;10407;53.238;10.448;2023-01-29T16:30:02;3.50;99.90
20498;DHT22;10407;53.238;10.448;2023-01-29T16:32:30;3.60;99.90
20498;DHT22;10407;53.238;10.448;2023-01-29T16:34:59;3.40;99.90
20498;DHT22;10407;53.238;10.448;2023-01-29T16:37:32;3.40;99.90
20498;DHT22;10407;53.238;10.448;2023-01-29T16:40:12;3.40;99.90
20498;DHT22;10407;53.238;10.448;2023-01-29T16:42:40;3.30;99.90
20498;DHT22;10407;53.238;10.448;2023-01-29T16:45:28;3.60;99.90
20498;DHT22;10407;53.238;10.448;2023-01-29T16:48:01;3.80;99.90
20498;DHT22;10407;53.238;10.448;2023-01-29T16:50:35;3.70;99.90
20498;DHT22;10407;53.238;10.448;2023-01-29T16:53:20;3.70;99.90
20498;DHT22;10407;53.238;10.448;2023-01-29T16:55:51;3.60;99.90
20498;DHT22;10407;53.238;10.448;2023-01-29T16:58:27;3.40;99.90
20498;DHT22;10407;53.238;10.448;2023-01-29T17:03:28;3.70;99.90
20498;DHT22;10407;53.238;10.448;2023-01-29T17:05:56;3.90;99.90
20498;DHT22;10407;53.238;10.448;2023-01-29T17:08:26;4.00;99.90
20498;DHT22;10407;53.238;10.448;2023-01-29T17:10:54;3.70;99.90
20498;DHT22;10407;53.238;10.448;2023-01-29T17:13:42;3.60;99.90
20498;DHT22;10407;53.238;10.448;2023-01-29T17:16:32;3.60;99.90
20498;DHT22;10407;53.238;10.448;2023-01-29T17:18:57;3.50;99.90
20498;DHT22;10407;53.238;10.448;2023-01-29T17:21:26;3.60;99.90
20498;DHT22;10407;53.238;10.448;2023-01-29T17:23:54;3.40;99.90
20498;DHT22;10407;53.238;10.448;2023-01-29T17:26:22;3.30;99.90
20498;DHT22;10407;53.238;10.448;2023-01-29T17:28:51;3.60;99.90
20498;DHT22;10407;53.238;10.448;2023-01-29T17:31:20;3.50;99.90
20498;DHT22;10407;53.238;10.448;2023-01-29T17:33:48;3.60;99.90
20498;DHT22;10407;53.238;10.448;2023-01-29T17:36:16;3.40;99.90
20498;DHT22;10407;53.238;10.448;2023-01-29T17:38:44;3.50;99.90
20498;DHT22;10407;53.238;10.448;2023-01-29T17:41:23;3.60;99.90
20498;DHT22;10407;53.238;10.448;2023-01-29T17:43:51;3.60;99.90
20498;DHT22;10407;53.238;10.448;2023-01-29T17:46:19;3.40;99.90
20498;DHT22;10407;53.238;10.448;2023-01-29T17:48:47;3.20;99.90
20498;DHT22;10407;53.238;10.448;2023-01-29T17:51:16;3.30;99.90